createdAt,value
2024-01-22T00:00:11.894Z,4.13
2024-01-22T00:01:11.760Z,4.22
2024-01-22T00:02:11.716Z,4.12
2024-01-22T00:03:11.776Z,4.10
2024-01-22T00:04:11.709Z,4.13
2024-01-22T00:05:11.685Z,4.20
2024-01-22T00:06:11.757Z,4.14
2024-01-22T00:07:11.651Z,4.19
2024-01-22T00:08:11.645Z,4.17
2024-01-22T00:09:11.651Z,4.12
2024-01-22T00:10:11.638Z,4.19
2024-01-22T00:11:11.652Z,4.24
2024-01-22T00:12:11.731Z,4.22
2024-01-22T00:13:11.605Z,4.31
2024-01-22T00:14:11.616Z,4.23
2024-01-22T00:15:11.743Z,4.19
2024-01-22T00:16:11.614Z,4.22
2024-01-22T00:17:11.603Z,4.32
2024-01-22T00:18:11.628Z,4.28
2024-01-22T00:19:11.621Z,4.41
2024-01-22T00:20:11.652Z,4.34
2024-01-22T00:21:11.589Z,4.37
2024-01-22T00:22:11.532Z,4.34
2024-01-22T00:23:11.552Z,4.38
2024-01-22T00:24:11.683Z,4.28
2024-01-22T00:25:11.839Z,4.38
2024-01-22T00:26:11.503Z,4.20
2024-01-22T00:27:11.570Z,4.22
2024-01-22T00:28:11.492Z,4.34
2024-01-22T00:29:11.966Z,4.22
2024-01-22T00:30:12.225Z,4.23
2024-01-22T00:31:11.474Z,4.16
2024-01-22T00:32:11.494Z,4.22
2024-01-22T00:33:11.564Z,4.32
2024-01-22T00:34:11.548Z,4.30
2024-01-22T00:35:11.482Z,4.45
2024-01-22T00:36:13.569Z,4.32
2024-01-22T00:37:11.451Z,4.38
2024-01-22T00:38:11.425Z,4.37
2024-01-22T00:39:11.490Z,4.31
2024-01-22T00:40:11.416Z,4.40
2024-01-22T00:41:11.406Z,4.45
2024-01-22T00:42:11.545Z,4.45
2024-01-22T00:43:11.396Z,4.50
2024-01-22T00:44:11.408Z,4.50
2024-01-22T00:45:11.485Z,4.59
2024-01-22T00:46:11.369Z,4.63
2024-01-22T00:47:11.357Z,4.56
2024-01-22T00:48:11.584Z,4.52
2024-01-22T00:49:11.464Z,4.55
2024-01-22T00:50:11.345Z,4.55
2024-01-22T00:51:11.397Z,4.62
2024-01-22T00:52:11.322Z,4.55
2024-01-22T00:53:12.341Z,4.53
2024-01-22T00:54:11.373Z,4.63
2024-01-22T00:55:11.293Z,4.73
2024-01-22T00:56:11.280Z,4.70
2024-01-22T00:57:11.334Z,4.67
2024-01-22T00:58:11.298Z,4.66
2024-01-22T00:59:11.274Z,4.71
2024-01-22T01:00:11.311Z,4.71
2024-01-22T01:01:11.313Z,4.74
2024-01-22T01:02:11.272Z,4.73
2024-01-22T01:03:11.327Z,4.74
2024-01-22T01:04:11.264Z,4.87
2024-01-22T01:05:11.263Z,4.92
2024-01-22T01:06:11.226Z,4.82
2024-01-22T01:07:11.224Z,4.77
2024-01-22T01:08:11.186Z,4.82
2024-01-22T01:09:11.254Z,4.70
2024-01-22T01:10:11.185Z,4.78
2024-01-22T01:11:11.176Z,4.82
2024-01-22T01:12:11.246Z,4.80
2024-01-22T01:13:11.154Z,4.89
2024-01-22T01:14:11.152Z,4.75
2024-01-22T01:15:11.231Z,4.77
2024-01-22T01:16:11.159Z,4.74
2024-01-22T01:17:11.170Z,4.74
2024-01-22T01:18:11.283Z,4.78
2024-01-22T01:19:11.248Z,4.70
2024-01-22T01:20:11.116Z,4.75
2024-01-22T01:21:11.175Z,4.78
2024-01-22T01:22:11.105Z,4.82
2024-01-22T01:23:11.104Z,4.80
2024-01-22T01:24:11.139Z,4.84
2024-01-22T01:25:11.074Z,4.78
2024-01-22T01:26:11.107Z,4.89
2024-01-22T01:27:11.185Z,4.78
2024-01-22T01:28:11.081Z,4.84
2024-01-22T01:29:11.053Z,4.86
2024-01-22T01:30:11.128Z,4.94
2024-01-22T01:31:11.082Z,4.84
2024-01-22T01:32:11.034Z,4.84
2024-01-22T01:33:11.145Z,4.78
2024-01-22T01:34:11.106Z,4.82
2024-01-22T01:35:11.037Z,4.89
2024-01-22T01:36:11.016Z,4.93
2024-01-22T01:37:10.972Z,4.96
2024-01-22T01:38:10.967Z,4.82
2024-01-22T01:39:11.068Z,4.90
2024-01-22T01:40:10.985Z,4.97
2024-01-22T01:41:10.940Z,4.92
2024-01-22T01:42:11.028Z,5.04
2024-01-22T01:43:10.922Z,4.92
2024-01-22T01:44:10.941Z,4.93
2024-01-22T01:45:10.994Z,5.02
2024-01-22T01:46:10.977Z,5.07
2024-01-22T01:47:10.896Z,5.10
2024-01-22T01:48:11.014Z,5.18
2024-01-22T01:49:11.029Z,5.15
2024-01-22T01:50:10.875Z,5.10
2024-01-22T01:51:10.876Z,5.17
2024-01-22T01:52:10.843Z,5.12
2024-01-22T01:53:10.852Z,5.14
2024-01-22T01:54:10.889Z,5.14
2024-01-22T01:55:10.834Z,5.20
2024-01-22T01:56:10.826Z,5.18
2024-01-22T01:57:10.837Z,5.07
2024-01-22T01:58:10.832Z,5.11
2024-01-22T01:59:11.833Z,5.05
2024-01-22T02:00:11.547Z,5.00
2024-01-22T02:01:10.899Z,5.07
2024-01-22T02:02:10.878Z,5.12
2024-01-22T02:03:10.882Z,5.08
2024-01-22T02:04:10.801Z,5.12
2024-01-22T02:05:10.858Z,5.07
2024-01-22T02:06:10.806Z,5.07
2024-01-22T02:07:10.738Z,5.02
2024-01-22T02:08:10.762Z,5.04
2024-01-22T02:09:10.759Z,5.00
2024-01-22T02:10:10.718Z,5.08
2024-01-22T02:11:10.708Z,4.97
2024-01-22T02:12:10.874Z,4.94
2024-01-22T02:13:10.726Z,5.00
2024-01-22T02:14:10.683Z,4.87
2024-01-22T02:15:10.714Z,4.93
2024-01-22T02:16:10.669Z,4.96
2024-01-22T02:17:10.685Z,4.93
2024-01-22T02:18:10.898Z,4.87
2024-01-22T02:19:10.769Z,4.89
2024-01-22T02:20:10.633Z,4.87
2024-01-22T02:21:10.693Z,4.97
2024-01-22T02:22:10.658Z,4.89
2024-01-22T02:23:10.651Z,4.90
2024-01-22T02:24:10.724Z,4.90
2024-01-22T02:25:10.602Z,4.90
2024-01-22T02:26:10.602Z,4.70
2024-01-22T02:27:10.672Z,4.75
2024-01-22T02:28:10.575Z,4.73
2024-01-22T02:29:10.572Z,4.70
2024-01-22T02:30:10.636Z,4.67
2024-01-22T02:31:10.569Z,4.63
2024-01-22T02:32:10.584Z,4.70
2024-01-22T02:33:10.622Z,4.71
2024-01-22T02:34:10.602Z,4.60
2024-01-22T02:35:10.526Z,4.73
2024-01-22T02:36:10.555Z,4.68
2024-01-22T02:37:10.538Z,4.70
2024-01-22T02:38:10.513Z,4.62
2024-01-22T02:39:10.578Z,4.71
2024-01-22T02:40:10.507Z,4.58
2024-01-22T02:41:10.551Z,4.78
2024-01-22T02:42:10.545Z,4.74
2024-01-22T02:43:10.471Z,4.75
2024-01-22T02:44:10.472Z,4.96
2024-01-22T02:45:10.495Z,5.04
2024-01-22T02:46:10.482Z,5.07
2024-01-22T02:47:10.437Z,5.07
2024-01-22T02:48:10.615Z,5.21
2024-01-22T02:49:10.719Z,5.29
2024-01-22T02:50:10.411Z,5.18
2024-01-22T02:51:10.494Z,5.23
2024-01-22T02:52:10.389Z,5.23
2024-01-22T02:53:10.381Z,5.25
2024-01-22T02:54:10.437Z,5.30
2024-01-22T02:55:10.420Z,5.36
2024-01-22T02:56:10.387Z,5.20
2024-01-22T02:57:10.376Z,5.32
2024-01-22T02:58:10.358Z,5.36
2024-01-22T02:59:10.341Z,5.46
2024-01-22T03:00:10.419Z,5.41
2024-01-22T03:01:10.353Z,5.39
2024-01-22T03:02:10.342Z,5.36
2024-01-22T03:03:10.358Z,5.36
2024-01-22T03:04:10.336Z,5.44
2024-01-22T03:05:10.339Z,5.53
2024-01-22T03:06:10.365Z,5.48
2024-01-22T03:07:10.395Z,5.39
2024-01-22T03:08:10.285Z,5.54
2024-01-22T03:09:10.347Z,5.59
2024-01-22T03:10:10.290Z,5.61
2024-01-22T03:11:10.259Z,5.61
2024-01-22T03:12:10.312Z,5.56
2024-01-22T03:13:10.253Z,5.51
2024-01-22T03:14:10.297Z,5.48
2024-01-22T03:15:10.295Z,5.51
2024-01-22T03:16:10.217Z,5.53
2024-01-22T03:17:10.212Z,5.43
2024-01-22T03:19:29.576Z,5.46
2024-01-22T03:20:29.475Z,5.46
2024-01-22T03:21:29.472Z,5.46
2024-01-22T03:22:30.670Z,5.44
2024-01-22T03:23:31.260Z,5.39
2024-01-22T03:24:32.861Z,5.39
2024-01-22T03:25:30.563Z,5.46
2024-01-22T03:26:30.566Z,5.36
2024-01-22T03:27:30.553Z,5.30
2024-01-22T03:28:30.570Z,5.25
2024-01-22T03:29:30.535Z,5.17
2024-01-22T03:30:30.540Z,5.20
2024-01-22T03:31:30.517Z,5.20
2024-01-22T03:32:30.527Z,5.17
2024-01-22T03:33:30.605Z,5.20
2024-01-22T03:34:30.523Z,5.26
2024-01-22T03:35:30.492Z,5.14
2024-01-22T03:36:30.490Z,5.08
2024-01-22T03:37:30.493Z,5.20
2024-01-22T03:38:30.492Z,5.10
2024-01-22T03:39:30.470Z,5.26
2024-01-22T03:40:30.448Z,5.23
2024-01-22T03:41:30.440Z,5.29
2024-01-22T03:42:30.458Z,5.33
2024-01-22T03:43:30.448Z,5.35
2024-01-22T03:44:30.407Z,5.30
2024-01-22T03:45:30.411Z,5.36
2024-01-22T03:46:30.395Z,5.39
2024-01-22T03:47:30.440Z,5.44
2024-01-22T03:48:30.541Z,5.38
2024-01-22T03:49:30.557Z,5.46
2024-01-22T03:50:30.400Z,5.48
2024-01-22T03:51:30.436Z,5.53
2024-01-22T03:52:30.390Z,5.47
2024-01-22T03:53:30.364Z,5.50
2024-01-22T03:54:30.351Z,5.62
2024-01-22T03:55:30.354Z,5.59
2024-01-22T03:56:30.366Z,5.62
2024-01-22T03:57:30.354Z,5.59
2024-01-22T03:58:30.569Z,5.66
2024-01-22T03:59:30.333Z,5.71
2024-01-22T04:00:30.360Z,5.91
2024-01-22T04:01:30.362Z,5.94
2024-01-22T04:02:30.296Z,5.94
2024-01-22T04:03:30.449Z,5.94
2024-01-22T04:04:30.331Z,6.01
2024-01-22T04:05:30.270Z,6.01
2024-01-22T04:06:30.386Z,6.05
2024-01-22T04:07:30.260Z,6.01
2024-01-22T04:08:30.271Z,5.99
2024-01-22T04:09:30.240Z,5.91
2024-01-22T04:10:30.260Z,6.01
2024-01-22T04:11:30.246Z,6.17
2024-01-22T04:12:30.283Z,6.14
2024-01-22T04:13:35.179Z,6.19
2024-01-22T04:14:31.200Z,6.20
2024-01-22T04:15:30.217Z,6.24
2024-01-22T04:16:30.188Z,6.27
2024-01-22T04:17:30.209Z,6.19
2024-01-22T04:18:30.355Z,6.16
2024-01-22T04:19:30.209Z,6.17
2024-01-22T04:20:30.198Z,6.17
2024-01-22T04:21:30.159Z,6.08
2024-01-22T04:22:30.135Z,6.16
2024-01-22T04:23:30.148Z,6.12
2024-01-22T04:24:30.147Z,6.19
2024-01-22T04:25:30.157Z,6.16
2024-01-22T04:26:30.121Z,6.09
2024-01-22T04:27:30.095Z,6.17
2024-01-22T04:28:30.098Z,6.26
2024-01-22T04:29:30.102Z,6.19
2024-01-22T04:30:30.164Z,6.31
2024-01-22T04:31:30.060Z,6.31
2024-01-22T04:32:30.136Z,6.36
2024-01-22T04:33:30.243Z,6.39
2024-01-22T04:34:30.131Z,6.44
2024-01-22T04:35:30.056Z,6.36
2024-01-22T04:36:30.026Z,6.52
2024-01-22T04:37:30.016Z,6.44
2024-01-22T04:38:30.011Z,6.44
2024-01-22T04:39:30.043Z,6.51
2024-01-22T04:40:30.020Z,6.38
2024-01-22T04:41:29.988Z,6.38
2024-01-22T04:42:29.980Z,6.44
2024-01-22T04:43:29.985Z,6.46
2024-01-22T04:44:30.027Z,6.45
2024-01-22T04:45:29.954Z,6.52
2024-01-22T04:46:29.948Z,6.52
2024-01-22T04:47:29.982Z,6.49
2024-01-22T04:48:30.038Z,6.35
2024-01-22T04:49:30.008Z,6.36
2024-01-22T04:50:29.926Z,6.44
2024-01-22T04:51:29.923Z,6.57
2024-01-22T04:52:29.912Z,6.45
2024-01-22T04:53:29.930Z,6.46
2024-01-22T04:54:29.921Z,6.41
2024-01-22T04:55:34.014Z,6.39
2024-01-22T04:56:30.876Z,6.31
2024-01-22T04:57:29.913Z,6.22
2024-01-22T04:58:29.898Z,6.36
2024-01-22T04:59:29.858Z,6.27
2024-01-22T05:00:29.914Z,6.30
2024-01-22T05:01:29.843Z,6.27
2024-01-22T05:02:29.838Z,6.35
2024-01-22T05:03:29.945Z,6.39
2024-01-22T05:04:29.836Z,6.38
2024-01-22T05:05:29.829Z,6.27
2024-01-22T05:06:29.820Z,6.33
2024-01-22T05:07:29.814Z,6.38
2024-01-22T05:08:29.805Z,6.27
2024-01-22T05:09:29.791Z,6.31
2024-01-22T05:10:29.762Z,6.27
2024-01-22T05:11:29.749Z,6.26
2024-01-22T05:12:29.847Z,6.28
2024-01-22T05:13:29.736Z,6.41
2024-01-22T05:14:29.733Z,6.35
2024-01-22T05:15:29.787Z,6.24
2024-01-22T05:16:29.713Z,6.38
2024-01-22T05:17:29.789Z,6.39
2024-01-22T05:18:29.862Z,6.26
2024-01-22T05:19:29.810Z,6.24
2024-01-22T05:20:29.715Z,6.24
2024-01-22T05:21:29.687Z,6.26
2024-01-22T05:22:29.697Z,6.17
2024-01-22T05:23:29.656Z,6.28
2024-01-22T05:24:29.706Z,6.16
2024-01-22T05:25:29.673Z,6.20
2024-01-22T05:26:29.667Z,6.20
2024-01-22T05:27:29.655Z,6.28
2024-01-22T05:28:29.628Z,6.26
2024-01-22T05:29:29.613Z,6.42
2024-01-22T05:30:29.615Z,6.35
2024-01-22T05:31:29.638Z,6.45
2024-01-22T05:32:29.619Z,6.45
2024-01-22T05:33:29.630Z,6.39
2024-01-22T05:34:29.600Z,6.48
2024-01-22T05:35:29.562Z,6.52
2024-01-22T05:36:29.597Z,6.60
2024-01-22T05:37:29.557Z,6.54
2024-01-22T05:38:29.561Z,6.52
2024-01-22T05:39:29.533Z,6.56
2024-01-22T05:40:29.591Z,6.59
2024-01-22T05:41:29.558Z,6.52
2024-01-22T05:42:29.516Z,6.59
2024-01-22T05:43:29.513Z,6.41
2024-01-22T05:44:29.545Z,6.39
2024-01-22T05:45:29.570Z,6.51
2024-01-22T05:46:29.493Z,6.39
2024-01-22T05:47:29.527Z,6.48
2024-01-22T05:48:29.605Z,6.54
2024-01-22T05:49:30.512Z,6.51
2024-01-22T05:50:30.529Z,6.62
2024-01-22T05:51:29.446Z,6.57
2024-01-22T05:52:29.433Z,6.54
2024-01-22T05:53:29.429Z,6.57
2024-01-22T05:54:29.451Z,6.57
2024-01-22T05:55:29.509Z,6.54
2024-01-22T05:56:29.422Z,6.54
2024-01-22T05:57:29.396Z,6.59
2024-01-22T05:58:29.388Z,6.57
2024-01-22T05:59:29.733Z,6.60
2024-01-22T06:00:30.492Z,6.57
2024-01-22T06:01:29.471Z,6.59
2024-01-22T06:02:29.388Z,6.67
2024-01-22T06:03:29.438Z,6.66
2024-01-22T06:04:30.114Z,6.66
2024-01-22T06:05:29.333Z,6.62
2024-01-22T06:06:29.386Z,6.59
2024-01-22T06:07:29.369Z,6.60
2024-01-22T06:08:29.320Z,6.57
2024-01-22T06:09:29.328Z,6.60
2024-01-22T06:10:29.331Z,6.66
2024-01-22T06:11:29.304Z,6.57
2024-01-22T06:12:29.324Z,6.56
2024-01-22T06:13:29.296Z,6.62
2024-01-22T06:14:29.294Z,6.52
2024-01-22T06:15:29.290Z,6.57
2024-01-22T06:16:29.249Z,6.56
2024-01-22T06:17:29.273Z,6.60
2024-01-22T06:18:29.648Z,6.56
2024-01-22T06:19:29.267Z,6.62
2024-01-22T06:20:29.226Z,6.52
2024-01-22T06:21:29.259Z,6.56
2024-01-22T06:22:29.246Z,6.42
2024-01-22T06:23:29.223Z,6.51
2024-01-22T06:24:29.218Z,6.52
2024-01-22T06:25:29.182Z,6.56
2024-01-22T06:26:30.193Z,6.57
2024-01-22T06:27:29.239Z,6.63
2024-01-22T06:28:29.195Z,6.67
2024-01-22T06:29:29.151Z,6.63
2024-01-22T06:30:29.205Z,6.70
2024-01-22T06:31:29.139Z,6.72
2024-01-22T06:32:30.682Z,6.74
2024-01-22T06:33:29.221Z,6.77
2024-01-22T06:34:29.239Z,6.78
2024-01-22T06:35:29.125Z,6.75
2024-01-22T06:36:29.147Z,6.84
2024-01-22T06:37:29.128Z,6.85
2024-01-22T06:38:29.186Z,6.81
2024-01-22T06:39:29.164Z,6.74
2024-01-22T06:40:29.072Z,6.78
2024-01-22T06:41:29.117Z,6.70
2024-01-22T06:42:37.313Z,6.72
2024-01-22T06:43:31.043Z,6.79
2024-01-22T06:44:29.053Z,6.74
2024-01-22T06:45:29.098Z,6.74
2024-01-22T06:46:29.058Z,6.79
2024-01-22T06:47:29.045Z,6.75
2024-01-22T06:48:29.162Z,6.85
2024-01-22T06:49:29.128Z,6.85
2024-01-22T06:50:28.996Z,6.84
2024-01-22T06:51:34.941Z,6.87
2024-01-22T06:52:31.009Z,6.84
2024-01-22T06:53:28.963Z,6.67
2024-01-22T06:54:29.044Z,6.74
2024-01-22T06:55:28.956Z,6.78
2024-01-22T06:56:28.944Z,6.72
2024-01-22T06:57:29.023Z,6.60
2024-01-22T06:58:28.924Z,6.64
2024-01-22T06:59:28.932Z,6.62
2024-01-22T07:00:28.951Z,6.57
2024-01-22T07:01:29.013Z,6.60
2024-01-22T07:02:28.929Z,6.41
2024-01-22T07:03:29.014Z,6.41
2024-01-22T07:04:28.902Z,6.39
2024-01-22T07:05:28.922Z,6.48
2024-01-22T07:06:28.932Z,6.35
2024-01-22T07:07:28.853Z,6.28
2024-01-22T07:08:28.845Z,6.27
2024-01-22T07:09:28.841Z,6.31
2024-01-22T07:10:28.835Z,6.24
2024-01-22T07:11:28.859Z,6.17
2024-01-22T07:12:31.235Z,6.30
2024-01-22T07:13:28.817Z,6.14
2024-01-22T07:14:28.816Z,6.16
2024-01-22T07:15:28.866Z,6.08
2024-01-22T07:16:28.875Z,6.07
2024-01-22T07:17:28.812Z,6.08
2024-01-22T07:18:28.882Z,6.02
2024-01-22T07:19:28.982Z,6.05
2024-01-22T07:20:28.788Z,5.94
2024-01-22T07:21:28.893Z,6.04
2024-01-22T07:22:28.746Z,6.05
2024-01-22T07:23:28.740Z,6.02
2024-01-22T07:24:28.754Z,5.98
2024-01-22T07:25:28.771Z,5.94
2024-01-22T07:26:28.739Z,5.93
2024-01-22T07:27:28.724Z,6.07
2024-01-22T07:28:28.719Z,5.91
2024-01-22T07:29:28.700Z,5.98
2024-01-22T07:30:28.902Z,5.98
2024-01-22T07:31:28.684Z,5.99
2024-01-22T07:32:28.721Z,5.97
2024-01-22T07:33:28.848Z,5.94
2024-01-22T07:34:28.812Z,5.99
2024-01-22T07:35:28.714Z,5.89
2024-01-22T07:36:28.760Z,5.94
2024-01-22T07:37:28.689Z,5.98
2024-01-22T07:38:28.638Z,5.93
2024-01-22T07:39:28.694Z,6.01
2024-01-22T07:40:28.608Z,6.07
2024-01-22T07:41:29.614Z,5.90
2024-01-22T07:42:28.638Z,6.01
2024-01-22T07:43:28.594Z,6.05
2024-01-22T07:44:28.603Z,6.04
2024-01-22T07:45:28.653Z,5.91
2024-01-22T07:46:28.577Z,5.93
2024-01-22T07:47:28.585Z,5.91
2024-01-22T07:48:28.697Z,5.99
2024-01-22T07:49:28.676Z,5.97
2024-01-22T07:50:28.544Z,5.99
2024-01-22T07:51:28.551Z,6.08
2024-01-22T07:52:28.531Z,6.04
2024-01-22T07:53:28.569Z,6.17
2024-01-22T07:54:28.572Z,6.09
2024-01-22T07:55:28.514Z,6.01
2024-01-22T07:56:28.496Z,6.02
2024-01-22T07:57:28.547Z,6.08
2024-01-22T07:58:28.500Z,6.07
2024-01-22T07:59:28.492Z,6.04
2024-01-22T08:00:28.553Z,6.05
2024-01-22T08:01:28.525Z,6.01
2024-01-22T08:02:28.469Z,6.02
2024-01-22T08:03:28.526Z,6.04
2024-01-22T08:04:28.521Z,5.91
2024-01-22T08:05:28.429Z,5.90
2024-01-22T08:06:28.483Z,5.99
2024-01-22T08:07:28.501Z,6.01
2024-01-22T08:08:28.405Z,5.91
2024-01-22T08:09:28.401Z,5.91
2024-01-22T08:10:28.381Z,5.94
2024-01-22T08:11:28.379Z,5.87
2024-01-22T08:12:28.435Z,5.98
2024-01-22T08:13:28.363Z,6.01
2024-01-22T08:14:28.356Z,5.94
2024-01-22T08:15:28.413Z,6.05
2024-01-22T08:16:28.362Z,6.01
2024-01-22T08:17:28.367Z,5.86
2024-01-22T08:18:28.421Z,5.84
2024-01-22T08:19:28.335Z,5.91
2024-01-22T08:20:28.298Z,5.90
2024-01-22T08:21:28.604Z,5.90
2024-01-22T08:22:28.274Z,5.80
2024-01-22T08:23:29.282Z,5.90
2024-01-22T08:24:28.352Z,5.84
2024-01-22T08:25:28.349Z,5.89
2024-01-22T08:26:28.283Z,5.93
2024-01-22T08:27:28.263Z,5.94
2024-01-22T08:28:28.240Z,5.98
2024-01-22T08:29:28.243Z,5.93
2024-01-22T08:30:28.312Z,5.86
2024-01-22T08:31:28.349Z,5.89
2024-01-22T08:32:28.244Z,6.02
2024-01-22T08:33:28.339Z,5.97
2024-01-22T08:34:28.373Z,6.02
2024-01-22T08:35:28.391Z,5.89
2024-01-22T08:36:28.259Z,5.99
2024-01-22T08:37:28.181Z,5.91
2024-01-22T08:38:28.162Z,5.94
2024-01-22T08:39:28.155Z,5.94
2024-01-22T08:40:28.171Z,5.91
2024-01-22T08:41:28.160Z,5.99
2024-01-22T08:42:28.144Z,5.90
2024-01-22T08:43:28.127Z,5.98
2024-01-22T08:44:28.128Z,6.04
2024-01-22T08:45:28.154Z,6.02
2024-01-22T08:46:28.158Z,5.94
2024-01-22T08:47:28.132Z,5.98
2024-01-22T08:48:28.170Z,5.93
2024-01-22T08:49:28.118Z,5.94
2024-01-22T08:50:28.094Z,5.98
2024-01-22T08:51:28.110Z,5.87
2024-01-22T08:52:28.052Z,6.01
2024-01-22T08:53:28.054Z,6.05
2024-01-22T08:54:28.121Z,6.07
2024-01-22T08:55:28.042Z,6.01
2024-01-22T08:56:28.034Z,6.09
2024-01-22T08:57:28.020Z,6.04
2024-01-22T08:58:28.018Z,6.08
2024-01-22T08:59:28.024Z,6.07
2024-01-22T09:00:28.044Z,6.14
2024-01-22T09:01:28.006Z,6.22
2024-01-22T09:02:27.978Z,6.14
2024-01-22T09:03:28.195Z,6.24
2024-01-22T09:04:28.041Z,6.30
2024-01-22T09:05:27.991Z,6.28
2024-01-22T09:06:27.976Z,6.31
2024-01-22T09:07:27.938Z,6.36
2024-01-22T09:08:27.976Z,6.44
2024-01-22T09:09:27.986Z,6.46
2024-01-22T09:10:27.917Z,6.44
2024-01-22T09:11:27.911Z,6.42
2024-01-22T09:12:27.965Z,6.27
2024-01-22T09:13:27.930Z,6.44
2024-01-22T09:14:27.891Z,6.26
2024-01-22T09:15:27.910Z,6.27
2024-01-22T09:16:27.875Z,6.35
2024-01-22T09:17:27.868Z,6.52
2024-01-22T09:18:59.992Z,6.56
2024-01-22T09:19:27.949Z,6.54
2024-01-22T09:20:27.849Z,6.60
2024-01-22T09:21:27.836Z,6.69
2024-01-22T09:22:27.847Z,6.85
2024-01-22T09:23:27.838Z,6.77
2024-01-22T09:24:27.964Z,6.85
2024-01-22T09:25:27.802Z,6.87
2024-01-22T09:26:27.839Z,6.78
2024-01-22T09:27:27.822Z,6.87
2024-01-22T09:28:27.780Z,6.87
2024-01-22T09:29:27.786Z,6.85
2024-01-22T09:30:27.875Z,6.85
2024-01-22T09:31:27.755Z,6.89
2024-01-22T09:32:27.789Z,6.93
2024-01-22T09:33:27.787Z,6.88
2024-01-22T09:34:27.765Z,6.82
2024-01-22T09:35:27.744Z,6.95
2024-01-22T09:36:27.786Z,6.81
2024-01-22T09:37:27.737Z,6.95
2024-01-22T09:38:27.714Z,6.84
2024-01-22T09:39:27.705Z,6.87
2024-01-22T09:40:30.635Z,6.88
2024-01-22T09:41:28.749Z,6.82
2024-01-22T09:42:27.739Z,6.81
2024-01-22T09:43:27.679Z,6.88
2024-01-22T09:44:27.667Z,6.88
2024-01-22T09:45:27.695Z,6.89
2024-01-22T09:46:27.677Z,6.79
2024-01-22T09:47:27.681Z,6.84
2024-01-22T09:48:27.802Z,6.89
2024-01-22T09:49:27.830Z,6.81
2024-01-22T09:50:27.654Z,6.89
2024-01-22T09:51:27.632Z,6.93
2024-01-22T09:52:27.604Z,6.99
2024-01-22T09:53:27.664Z,7.07
2024-01-22T09:54:27.608Z,7.15
2024-01-22T09:55:27.683Z,7.17
2024-01-22T09:56:27.576Z,7.20
2024-01-22T09:57:27.617Z,7.17
2024-01-22T09:58:27.625Z,7.15
2024-01-22T09:59:27.565Z,7.20
2024-01-22T10:00:27.854Z,7.20
2024-01-22T10:01:27.554Z,7.18
2024-01-22T10:02:27.586Z,7.18
2024-01-22T10:03:27.567Z,7.21
2024-01-22T10:04:27.699Z,7.25
2024-01-22T10:05:27.638Z,7.29
2024-01-22T10:06:27.556Z,7.31
2024-01-22T10:07:27.500Z,7.24
2024-01-22T10:08:27.495Z,7.24
2024-01-22T10:09:27.543Z,7.25
2024-01-22T10:10:27.496Z,7.33
2024-01-22T10:11:27.466Z,7.32
2024-01-22T10:12:27.491Z,7.48
2024-01-22T10:13:27.449Z,7.58
2024-01-22T10:14:27.444Z,7.61
2024-01-22T10:15:27.779Z,7.58
2024-01-22T10:16:27.455Z,7.69
2024-01-22T10:17:27.503Z,7.73
2024-01-22T10:18:27.517Z,7.73
2024-01-22T10:19:27.596Z,7.76
2024-01-22T10:20:27.421Z,7.85
2024-01-22T10:21:27.545Z,7.82
2024-01-22T10:22:27.384Z,7.85
2024-01-22T10:23:27.387Z,7.94
2024-01-22T10:24:27.440Z,7.94
2024-01-22T10:25:27.358Z,7.91
2024-01-22T10:26:27.366Z,7.97
2024-01-22T10:27:27.377Z,8.03
2024-01-22T10:28:27.357Z,7.97
2024-01-22T10:29:27.376Z,8.01
2024-01-22T10:30:27.359Z,8.05
2024-01-22T10:31:27.408Z,7.97
2024-01-22T10:32:27.421Z,7.90
2024-01-22T10:33:27.461Z,7.77
2024-01-22T10:34:27.422Z,7.83
2024-01-22T10:35:27.390Z,7.83
2024-01-22T10:36:27.382Z,7.83
2024-01-22T10:37:27.265Z,7.85
2024-01-22T10:38:27.288Z,7.90
2024-01-22T10:39:27.280Z,7.91
2024-01-22T10:40:27.267Z,8.01
2024-01-22T10:41:27.242Z,7.88
2024-01-22T10:42:27.259Z,7.85
2024-01-22T10:43:27.416Z,7.87
2024-01-22T10:44:27.233Z,7.79
2024-01-22T10:45:27.409Z,7.72
2024-01-22T10:46:27.229Z,7.77
2024-01-22T10:47:27.239Z,7.82
2024-01-22T10:48:37.207Z,7.80
2024-01-22T10:49:29.306Z,7.79
2024-01-22T10:50:27.205Z,7.72
2024-01-22T10:51:27.166Z,7.73
2024-01-22T10:52:27.181Z,7.73
2024-01-22T10:53:27.146Z,7.72
2024-01-22T10:54:27.202Z,7.70
2024-01-22T10:55:27.125Z,7.72
2024-01-22T10:56:28.234Z,7.70
2024-01-22T10:57:28.374Z,7.72
2024-01-22T10:58:27.238Z,7.85
2024-01-22T10:59:27.104Z,7.80
2024-01-22T11:00:27.362Z,7.79
2024-01-22T11:01:28.544Z,7.79
2024-01-22T11:02:27.100Z,7.75
2024-01-22T11:03:27.131Z,7.69
2024-01-22T11:04:27.069Z,7.69
2024-01-22T11:05:27.095Z,7.76
2024-01-22T11:06:27.605Z,7.82
2024-01-22T11:07:27.054Z,7.73
2024-01-22T11:08:27.047Z,7.70
2024-01-22T11:09:27.111Z,7.66
2024-01-22T11:10:27.024Z,7.75
2024-01-22T11:11:27.099Z,7.79
2024-01-22T11:12:27.022Z,7.69
2024-01-22T11:13:26.987Z,7.76
2024-01-22T11:14:26.974Z,7.80
2024-01-22T11:15:26.990Z,7.69
2024-01-22T11:16:27.077Z,7.75
2024-01-22T11:17:26.951Z,7.66
2024-01-22T11:18:27.082Z,7.80
2024-01-22T11:19:27.022Z,7.72
2024-01-22T11:20:26.950Z,7.67
2024-01-22T11:21:26.946Z,7.63
2024-01-22T11:22:26.926Z,7.79
2024-01-22T11:23:26.899Z,7.75
2024-01-22T11:24:26.965Z,7.82
2024-01-22T11:25:26.916Z,7.79
2024-01-22T11:26:26.879Z,7.77
2024-01-22T11:27:26.927Z,7.77
2024-01-22T11:28:26.905Z,7.82
2024-01-22T11:29:26.855Z,7.77
2024-01-22T11:30:26.912Z,7.76
2024-01-22T11:31:26.843Z,7.79
2024-01-22T11:32:26.850Z,7.70
2024-01-22T11:33:26.967Z,7.79
2024-01-22T11:34:26.822Z,7.80
2024-01-22T11:35:27.891Z,7.79
2024-01-22T11:36:27.619Z,7.76
2024-01-22T11:37:26.788Z,7.77
2024-01-22T11:38:26.850Z,7.79
2024-01-22T11:39:26.955Z,7.83
2024-01-22T11:40:26.796Z,7.82
2024-01-22T11:41:26.930Z,7.87
2024-01-22T11:42:26.838Z,7.88
2024-01-22T11:43:26.760Z,7.83
2024-01-22T11:44:26.757Z,7.93
2024-01-22T11:45:30.371Z,7.85
2024-01-22T11:46:28.717Z,7.88
2024-01-22T11:47:26.714Z,7.83
2024-01-22T11:48:26.835Z,7.91
2024-01-22T11:49:26.779Z,7.83
2024-01-22T11:50:26.696Z,7.83
2024-01-22T11:51:26.869Z,7.82
2024-01-22T11:52:26.829Z,7.87
2024-01-22T11:53:26.665Z,7.94
2024-01-22T11:54:26.700Z,7.90
2024-01-22T11:55:26.649Z,7.95
2024-01-22T11:56:26.654Z,7.91
2024-01-22T11:57:26.723Z,7.93
2024-01-22T11:58:26.657Z,7.98
2024-01-22T11:59:26.652Z,7.93
2024-01-22T12:00:26.647Z,8.00
2024-01-22T12:01:26.616Z,7.94
2024-01-22T12:02:26.596Z,8.05
2024-01-22T12:03:26.840Z,7.94
2024-01-22T12:04:26.630Z,8.00
2024-01-22T12:05:26.629Z,7.94
2024-01-22T12:06:26.706Z,8.08
2024-01-22T12:07:26.569Z,8.01
2024-01-22T12:08:26.625Z,8.03
2024-01-22T12:09:26.699Z,8.06
2024-01-22T12:10:26.768Z,8.05
2024-01-22T12:11:26.532Z,8.12
2024-01-22T12:12:26.542Z,8.06
2024-01-22T12:13:26.542Z,8.13
2024-01-22T12:14:26.537Z,8.12
2024-01-22T12:15:26.629Z,8.20
2024-01-22T12:16:26.486Z,8.05
2024-01-22T12:17:26.478Z,8.05
2024-01-22T12:18:26.597Z,8.19
2024-01-22T12:19:26.482Z,8.15
2024-01-22T12:20:26.646Z,8.12
2024-01-22T12:21:26.521Z,8.19
2024-01-22T12:22:26.457Z,8.06
2024-01-22T12:23:26.480Z,8.08
2024-01-22T12:24:26.605Z,8.08
2024-01-22T12:25:26.423Z,8.00
2024-01-22T12:26:26.414Z,8.03
2024-01-22T12:27:26.487Z,8.09
2024-01-22T12:28:26.430Z,8.08
2024-01-22T12:29:26.904Z,8.06
2024-01-22T12:30:26.636Z,8.09
2024-01-22T12:31:26.407Z,8.08
2024-01-22T12:32:26.399Z,7.97
2024-01-22T12:33:28.297Z,8.06
2024-01-22T12:34:26.692Z,8.13
2024-01-22T12:35:26.338Z,8.06
2024-01-22T12:36:26.386Z,8.06
2024-01-22T12:37:26.370Z,8.03
2024-01-22T12:38:26.353Z,8.10
2024-01-22T12:39:26.326Z,8.13
2024-01-22T12:40:26.302Z,8.13
2024-01-22T12:41:26.288Z,8.10
2024-01-22T12:42:26.347Z,8.05
2024-01-22T12:43:26.325Z,8.03
2024-01-22T12:44:26.270Z,8.09
2024-01-22T12:45:26.489Z,8.15
2024-01-22T12:46:26.266Z,8.05
2024-01-22T12:47:26.302Z,8.10
2024-01-22T12:48:26.432Z,8.19
2024-01-22T12:49:26.317Z,8.08
2024-01-22T12:50:26.228Z,8.10
2024-01-22T12:51:26.336Z,7.97
2024-01-22T12:52:26.272Z,8.03
2024-01-22T12:53:26.224Z,8.00
2024-01-22T12:54:26.221Z,8.18
2024-01-22T12:55:26.214Z,8.12
2024-01-22T12:56:26.200Z,8.08
2024-01-22T12:57:26.320Z,7.94
2024-01-22T12:58:26.163Z,7.94
2024-01-22T12:59:26.150Z,7.97
2024-01-22T13:00:26.190Z,7.98
2024-01-22T13:01:26.123Z,7.95
2024-01-22T13:02:26.161Z,7.90
2024-01-22T13:03:26.270Z,7.90
2024-01-22T13:04:27.098Z,7.85
2024-01-22T13:05:26.132Z,7.79
2024-01-22T13:06:26.238Z,7.88
2024-01-22T13:07:26.118Z,7.87
2024-01-22T13:08:26.084Z,7.87
2024-01-22T13:09:26.090Z,7.82
2024-01-22T13:10:26.121Z,7.87
2024-01-22T13:11:26.061Z,7.83
2024-01-22T13:12:26.250Z,7.79
2024-01-22T13:13:26.062Z,7.79
2024-01-22T13:14:27.657Z,7.82
2024-01-22T13:15:26.112Z,7.83
2024-01-22T13:16:26.081Z,7.83
2024-01-22T13:17:26.125Z,7.80
2024-01-22T13:18:26.169Z,7.83
2024-01-22T13:19:26.060Z,7.85